createdAt,value
2022-09-03T00:09:41.568Z,1.30
2022-09-03T00:19:53.652Z,1.90
2022-09-03T00:30:05.326Z,2.60
2022-09-03T00:40:28.510Z,2.50
2022-09-03T00:50:47.639Z,2.70
2022-09-03T01:00:54.293Z,2.70
2022-09-03T01:11:10.858Z,2.50
2022-09-03T01:21:41.669Z,3.70
2022-09-03T01:32:00.173Z,1.90
2022-09-03T01:42:21.085Z,2.90
2022-09-03T01:52:42.166Z,2.00
2022-09-03T02:02:51.543Z,3.60
2022-09-03T02:13:00.976Z,3.80
2022-09-03T02:23:06.933Z,4.60
2022-09-03T02:33:13.766Z,3.30
2022-09-03T02:43:25.997Z,3.40
2022-09-03T02:53:31.873Z,4.20
2022-09-03T03:03:37.734Z,3.10
2022-09-03T03:13:43.550Z,2.10
2022-09-03T03:23:49.808Z,2.50
2022-09-03T03:33:58.242Z,3.00
2022-09-03T03:44:06.176Z,3.00
2022-09-03T03:54:11.876Z,3.40
2022-09-03T04:04:23.458Z,3.40
2022-09-03T04:14:29.469Z,3.90
2022-09-03T04:24:35.937Z,2.50
2022-09-03T04:34:41.640Z,4.10
2022-09-03T04:44:47.437Z,3.90
2022-09-03T04:54:53.153Z,1.90
2022-09-03T05:04:59.052Z,2.80
2022-09-03T05:15:05.492Z,3.00
2022-09-03T05:25:11.809Z,3.00
2022-09-03T05:35:17.734Z,2.80
2022-09-03T05:45:23.473Z,3.90
2022-09-03T05:55:30.051Z,7.40
2022-09-03T06:05:35.762Z,2.50
2022-09-03T06:15:41.481Z,3.30
2022-09-03T06:25:47.171Z,2.50
2022-09-03T06:35:59.503Z,3.00
2022-09-03T06:46:07.165Z,1.90
2022-09-03T06:56:14.445Z,3.40
2022-09-03T07:06:21.791Z,3.30
2022-09-03T07:16:29.431Z,1.70
2022-09-03T07:26:38.167Z,1.00
2022-09-03T07:36:46.997Z,1.80
2022-09-03T07:46:54.674Z,3.20
2022-09-03T07:57:00.354Z,1.30
2022-09-03T08:07:06.032Z,3.80
2022-09-03T08:17:12.767Z,2.30
2022-09-03T08:27:25.520Z,1.20
2022-09-03T08:37:33.130Z,1.00
2022-09-03T08:47:44.253Z,3.10
2022-09-03T08:57:52.481Z,4.00
2022-09-03T09:08:12.617Z,2.40
2022-09-03T09:18:25.241Z,3.50
2022-09-03T09:28:35.909Z,2.60
2022-09-03T09:38:42.877Z,2.10
2022-09-03T09:48:53.854Z,3.80
2022-09-03T09:59:08.739Z,2.80
2022-09-03T10:09:16.725Z,3.40
2022-09-03T10:29:30.573Z,2.50
2022-09-03T10:39:52.475Z,4.50
2022-09-03T10:50:04.609Z,3.40
2022-09-03T11:00:13.230Z,3.20
2022-09-03T11:10:25.018Z,3.60
2022-09-03T11:20:37.340Z,1.60
2022-09-03T11:30:57.565Z,2.10
2022-09-03T11:41:16.046Z,3.50
2022-09-03T11:51:37.793Z,2.20
2022-09-03T12:01:52.459Z,1.80
2022-09-03T12:12:10.421Z,1.90
2022-09-03T12:22:20.898Z,4.10
2022-09-03T12:32:27.759Z,3.10
2022-09-03T12:42:35.212Z,3.40
2022-09-03T12:52:44.299Z,2.80
2022-09-03T13:02:57.010Z,2.20
2022-09-03T13:13:08.395Z,2.90
2022-09-03T13:23:26.815Z,5.50
2022-09-03T13:33:39.014Z,3.20
2022-09-03T13:43:48.500Z,4.50
2022-09-03T13:54:07.004Z,8.30
2022-09-03T14:04:23.068Z,5.60
2022-09-03T14:14:42.674Z,5.50
2022-09-03T14:24:53.779Z,4.60
2022-09-03T14:35:34.112Z,7.10
2022-09-03T14:46:05.045Z,3.70
2022-09-03T14:56:26.358Z,5.20
2022-09-03T15:06:53.777Z,4.80
2022-09-03T15:17:21.480Z,5.50
2022-09-03T15:28:00.408Z,4.00
2022-09-03T15:38:12.062Z,5.10
2022-09-03T15:48:27.968Z,5.00
2022-09-03T15:58:38.739Z,4.80
2022-09-03T16:08:50.522Z,3.80
2022-09-03T16:19:06.784Z,2.90
2022-09-03T16:29:15.589Z,2.20
2022-09-03T16:39:34.496Z,2.40
2022-09-03T16:49:54.520Z,6.60
2022-09-03T17:00:11.325Z,6.30
2022-09-03T17:10:29.087Z,3.80
2022-09-03T17:20:54.270Z,3.90
2022-09-03T17:31:10.239Z,2.30
2022-09-03T17:41:29.974Z,2.80
2022-09-03T17:51:46.179Z,3.60
2022-09-03T18:02:01.834Z,3.80
2022-09-03T18:12:16.784Z,1.80
2022-09-03T18:22:45.176Z,3.30
2022-09-03T18:33:08.524Z,3.70
2022-09-03T18:43:38.418Z,2.60
2022-09-03T18:54:15.585Z,2.00
2022-09-03T19:04:50.143Z,3.90
2022-09-03T19:15:20.146Z,2.40
2022-09-03T19:25:45.144Z,4.90
2022-09-03T19:36:19.189Z,3.80
2022-09-03T19:46:55.396Z,2.70
2022-09-03T19:57:18.901Z,3.50
2022-09-03T20:07:43.032Z,2.80
2022-09-03T20:18:02.516Z,5.40
2022-09-03T20:28:19.727Z,5.40
2022-09-03T20:38:57.884Z,4.10
2022-09-03T20:49:13.064Z,6.20
2022-09-03T20:59:30.820Z,5.10
2022-09-03T21:09:48.527Z,6.90
2022-09-03T21:20:09.935Z,4.70
2022-09-03T21:30:19.144Z,5.60
2022-09-03T21:40:29.283Z,5.90
2022-09-03T21:50:54.024Z,4.50
2022-09-03T22:01:06.821Z,6.50
2022-09-03T22:11:20.208Z,10.10
2022-09-03T22:21:33.089Z,7.30
2022-09-03T22:31:50.837Z,5.60
2022-09-03T22:42:10.808Z,6.70
2022-09-03T22:52:29.919Z,6.00
2022-09-03T23:02:35.620Z,7.80
2022-09-03T23:12:46.254Z,6.10
2022-09-03T23:23:00.427Z,10.40
2022-09-03T23:33:06.477Z,9.00
2022-09-03T23:43:38.609Z,6.50
2022-09-03T23:53:53.881Z,6.20
